createdAt,value
2022-12-08T00:00:32.437Z,8.77
2022-12-08T00:05:53.126Z,8.18
2022-12-08T00:10:54.711Z,11.63
2022-12-08T00:16:05.357Z,10.40
2022-12-08T00:21:07.054Z,9.55
2022-12-08T00:26:08.938Z,9.85
2022-12-08T00:31:11.861Z,12.38
2022-12-08T00:36:14.595Z,11.75
2022-12-08T00:41:44.901Z,11.45
2022-12-08T00:46:48.144Z,13.77
2022-12-08T00:51:50.123Z,11.05
2022-12-08T00:56:51.973Z,10.65
2022-12-08T01:01:53.601Z,14.98
2022-12-08T01:06:55.273Z,10.77
2022-12-08T01:11:57.113Z,11.80
2022-12-08T01:16:58.980Z,13.65
2022-12-08T01:22:00.600Z,12.68
2022-12-08T01:27:02.283Z,9.95
2022-12-08T01:32:04.047Z,11.10
2022-12-08T01:37:06.078Z,11.70
2022-12-08T01:42:20.356Z,11.30
2022-12-08T01:47:24.749Z,10.07
2022-12-08T01:52:36.894Z,10.13
2022-12-08T01:57:45.144Z,8.32
2022-12-08T02:03:02.230Z,11.00
2022-12-08T02:08:08.697Z,11.15
2022-12-08T02:13:17.927Z,9.52
2022-12-08T02:18:22.358Z,12.30
2022-12-08T02:23:39.154Z,10.48
2022-12-08T02:28:58.020Z,12.60
2022-12-08T02:34:17.851Z,12.50
2022-12-08T02:39:36.296Z,11.85
2022-12-08T02:44:48.445Z,11.68
2022-12-08T02:49:50.099Z,10.13
2022-12-08T02:54:55.727Z,13.10
2022-12-08T03:00:06.876Z,11.65
2022-12-08T03:05:11.770Z,9.27
2022-12-08T03:10:25.487Z,11.02
2022-12-08T03:15:27.640Z,13.07
2022-12-08T03:20:31.147Z,12.73
2022-12-08T03:25:37.976Z,11.00
2022-12-08T03:30:42.171Z,9.75
2022-12-08T03:35:45.384Z,12.43
2022-12-08T03:41:06.960Z,10.95
2022-12-08T03:46:08.577Z,9.02
2022-12-08T03:51:10.301Z,9.82
2022-12-08T03:56:33.305Z,10.88
2022-12-08T04:01:34.959Z,9.90
2022-12-08T04:06:36.572Z,10.20
2022-12-08T04:11:38.180Z,9.02
2022-12-08T04:16:40.103Z,9.82
2022-12-08T04:21:41.749Z,13.90
2022-12-08T04:26:43.391Z,9.52
2022-12-08T04:31:45.121Z,10.15
2022-12-08T04:36:46.811Z,7.35
2022-12-08T04:41:48.400Z,9.20
2022-12-08T04:46:50.075Z,9.68
2022-12-08T04:51:51.704Z,10.43
2022-12-08T04:56:53.320Z,13.60
2022-12-08T05:01:55.065Z,16.23
2022-12-08T05:06:56.928Z,12.32
2022-12-08T05:11:58.569Z,15.25
2022-12-08T05:17:03.642Z,16.83
2022-12-08T05:22:07.929Z,12.57
2022-12-08T05:27:09.891Z,18.13
2022-12-08T05:32:11.489Z,19.85
2022-12-08T05:37:13.264Z,24.00
2022-12-08T05:42:14.899Z,18.30
2022-12-08T05:47:16.532Z,14.43
2022-12-08T05:52:18.349Z,14.38
2022-12-08T05:57:19.917Z,16.70
2022-12-08T06:02:21.627Z,15.82
2022-12-08T06:07:23.356Z,18.08
2022-12-08T06:12:24.996Z,16.77
2022-12-08T06:17:26.589Z,18.45
2022-12-08T06:22:28.929Z,22.42
2022-12-08T06:27:30.965Z,19.42
2022-12-08T06:32:32.756Z,19.52
2022-12-08T06:37:34.429Z,20.30
2022-12-08T06:42:46.539Z,20.63
2022-12-08T06:47:48.193Z,17.60
2022-12-08T06:53:01.133Z,20.52
2022-12-08T06:58:06.596Z,21.10
2022-12-08T07:03:09.925Z,21.50
2022-12-08T07:08:11.878Z,22.55
2022-12-08T07:13:13.511Z,20.90
2022-12-08T07:18:15.136Z,20.67
2022-12-08T07:23:16.867Z,23.85
2022-12-08T07:28:18.505Z,23.85
2022-12-08T07:33:20.096Z,24.42
2022-12-08T07:38:21.764Z,24.92
2022-12-08T07:43:23.781Z,25.63
2022-12-08T07:48:25.569Z,30.13
2022-12-08T07:53:27.190Z,25.98
2022-12-08T07:58:28.772Z,26.73
2022-12-08T08:03:31.039Z,29.95
2022-12-08T08:08:32.708Z,26.70
2022-12-08T08:13:34.521Z,26.05
2022-12-08T08:18:37.791Z,29.15
2022-12-08T08:23:39.570Z,21.90
2022-12-08T08:28:41.624Z,22.05
2022-12-08T08:33:43.203Z,21.38
2022-12-08T08:38:44.943Z,22.70
2022-12-08T08:43:46.672Z,23.80
2022-12-08T08:48:48.431Z,21.33
2022-12-08T08:53:50.103Z,21.17
2022-12-08T08:58:53.150Z,21.33
2022-12-08T09:03:56.280Z,22.08
2022-12-08T09:08:57.946Z,23.35
2022-12-08T09:13:59.724Z,22.70
2022-12-08T09:19:02.380Z,18.30
2022-12-08T09:24:04.392Z,20.67
2022-12-08T09:29:06.033Z,19.33
2022-12-08T09:34:07.840Z,20.17
2022-12-08T09:39:09.774Z,19.95
2022-12-08T09:44:23.590Z,18.90
2022-12-08T09:49:39.398Z,19.75
2022-12-08T09:54:42.788Z,18.30
2022-12-08T09:59:54.877Z,17.77
2022-12-08T10:04:58.837Z,15.65
2022-12-08T10:10:25.320Z,17.02
2022-12-08T10:16:05.862Z,15.32
2022-12-08T10:21:20.463Z,18.35
2022-12-08T10:26:22.813Z,21.48
2022-12-08T10:31:25.613Z,17.42
2022-12-08T10:36:49.436Z,18.02
2022-12-08T10:41:51.638Z,21.50
2022-12-08T10:46:53.368Z,21.02
2022-12-08T10:51:55.085Z,20.75
2022-12-08T10:56:57.351Z,21.95
2022-12-08T11:02:00.771Z,20.23
2022-12-08T11:07:05.386Z,22.35
2022-12-08T11:12:08.502Z,20.52
2022-12-08T11:17:25.511Z,20.13
2022-12-08T11:22:37.764Z,18.20
2022-12-08T11:27:45.491Z,18.73
2022-12-08T11:32:50.782Z,20.23
2022-12-08T11:38:03.025Z,17.02
2022-12-08T11:43:18.663Z,21.23
2022-12-08T11:48:32.204Z,19.45
2022-12-08T11:53:57.165Z,20.08
2022-12-08T11:59:06.753Z,24.98
2022-12-08T12:04:21.391Z,21.02
2022-12-08T12:09:44.851Z,24.23
2022-12-08T12:15:11.825Z,20.65
2022-12-08T12:20:57.536Z,23.30
2022-12-08T12:26:02.295Z,20.98
2022-12-08T12:31:12.058Z,20.80
2022-12-08T12:36:15.754Z,20.55
2022-12-08T12:41:27.774Z,20.40
2022-12-08T12:46:29.588Z,20.75
2022-12-08T12:51:53.958Z,23.48
2022-12-08T12:57:16.500Z,21.08
2022-12-08T13:02:40.866Z,19.70
2022-12-08T13:07:50.344Z,19.42
2022-12-08T13:13:07.269Z,21.92
2022-12-08T13:18:20.106Z,21.33
2022-12-08T13:23:27.090Z,21.00
2022-12-08T13:28:31.149Z,23.33
2022-12-08T13:33:41.197Z,21.50
2022-12-08T13:38:46.636Z,21.50
2022-12-08T13:44:39.116Z,22.77
2022-12-08T14:00:21.296Z,24.35
2022-12-08T14:05:47.624Z,22.17
2022-12-08T14:10:53.341Z,22.08
2022-12-08T14:15:55.065Z,20.85
2022-12-08T14:21:20.255Z,25.00
2022-12-08T14:26:22.517Z,24.90
2022-12-08T14:31:24.193Z,23.40
2022-12-08T14:36:26.825Z,24.83
2022-12-08T14:41:32.996Z,24.30
2022-12-08T14:46:34.658Z,28.08
2022-12-08T14:51:36.914Z,24.48
2022-12-08T14:56:43.337Z,24.10
2022-12-08T15:01:49.651Z,26.58
2022-12-08T15:07:14.868Z,24.80
2022-12-08T15:12:27.432Z,26.15
2022-12-08T15:17:44.513Z,25.83
2022-12-08T15:22:46.320Z,22.63
2022-12-08T15:27:50.698Z,23.88
2022-12-08T15:32:54.216Z,26.80
2022-12-08T15:37:55.933Z,20.92
2022-12-08T15:42:57.606Z,24.08
2022-12-08T15:47:59.400Z,27.17
2022-12-08T15:53:01.093Z,27.23
2022-12-08T15:58:52.436Z,28.60
2022-12-08T16:09:06.355Z,30.63
2022-12-08T16:15:01.386Z,33.05
2022-12-08T16:19:34.196Z,30.80
2022-12-08T16:24:35.812Z,29.30
2022-12-08T16:29:37.390Z,30.83
2022-12-08T16:34:39.129Z,28.92
2022-12-08T16:39:45.549Z,29.10
2022-12-08T16:44:47.413Z,29.13
2022-12-08T16:49:49.187Z,35.38
2022-12-08T16:54:50.855Z,29.55
2022-12-08T16:59:52.468Z,34.17
2022-12-08T17:04:54.144Z,27.65
2022-12-08T17:09:55.944Z,30.05
2022-12-08T17:14:57.585Z,32.22
2022-12-08T17:19:59.183Z,30.00
2022-12-08T17:25:01.801Z,34.83
2022-12-08T17:30:05.529Z,30.38
2022-12-08T17:35:08.070Z,55.25
2022-12-08T17:40:10.203Z,28.15
2022-12-08T17:45:11.833Z,30.58
2022-12-08T17:50:13.663Z,32.20
2022-12-08T17:55:15.519Z,33.75
2022-12-08T18:00:17.248Z,32.30
2022-12-08T18:05:19.436Z,58.58
2022-12-08T18:10:21.165Z,38.05
2022-12-08T18:15:22.816Z,44.42
2022-12-08T18:20:24.737Z,35.80
2022-12-08T18:25:26.344Z,40.50
2022-12-08T18:30:28.140Z,33.45
2022-12-08T18:35:30.447Z,33.03
2022-12-08T18:40:32.067Z,36.22
2022-12-08T18:45:36.719Z,31.30
2022-12-08T18:50:43.117Z,36.03
2022-12-08T18:55:46.660Z,28.30
2022-12-08T19:00:48.251Z,30.15
2022-12-08T19:05:49.879Z,32.03
2022-12-08T19:10:51.484Z,36.22
2022-12-08T19:15:53.971Z,33.05
2022-12-08T19:20:56.908Z,34.78
2022-12-08T19:25:58.848Z,36.10
2022-12-08T19:31:04.380Z,33.53
2022-12-08T19:36:13.513Z,33.55
2022-12-08T19:41:33.892Z,35.13
2022-12-08T19:46:40.248Z,34.05
2022-12-08T19:51:42.195Z,33.65
2022-12-08T19:56:43.874Z,36.70
2022-12-08T20:01:48.039Z,32.75
2022-12-08T20:06:51.311Z,38.53
2022-12-08T20:11:54.742Z,36.53
2022-12-08T20:16:56.545Z,36.97
2022-12-08T20:21:58.189Z,40.38
2022-12-08T20:26:59.807Z,34.20
2022-12-08T20:32:01.391Z,34.97
2022-12-08T20:37:03.329Z,41.20
2022-12-08T20:42:04.979Z,38.85
2022-12-08T20:47:06.690Z,40.45
2022-12-08T20:52:09.188Z,37.75
2022-12-08T20:57:10.850Z,36.67
2022-12-08T21:02:12.563Z,42.13
2022-12-08T21:07:14.430Z,42.03
2022-12-08T21:12:16.180Z,42.50
2022-12-08T21:17:18.248Z,39.28
2022-12-08T21:22:21.094Z,39.85
2022-12-08T21:27:22.805Z,41.75
2022-12-08T21:32:30.083Z,42.10
2022-12-08T21:37:33.151Z,39.50
2022-12-08T21:42:44.346Z,42.25
2022-12-08T21:47:47.659Z,41.53
2022-12-08T21:52:50.065Z,47.03
2022-12-08T21:57:51.947Z,44.85
2022-12-08T22:02:53.829Z,49.13
2022-12-08T22:07:55.614Z,42.72
2022-12-08T22:12:57.506Z,39.00
2022-12-08T22:17:59.331Z,39.60
2022-12-08T22:23:00.972Z,41.42
2022-12-08T22:28:03.474Z,40.33
2022-12-08T22:33:05.031Z,41.22
2022-12-08T22:38:06.603Z,40.95
2022-12-08T22:43:08.319Z,44.17
2022-12-08T22:48:10.630Z,40.38
2022-12-08T22:53:12.793Z,34.33
2022-12-08T22:58:14.501Z,30.75
2022-12-08T23:03:16.599Z,28.00
2022-12-08T23:08:18.627Z,35.75
2022-12-08T23:13:21.571Z,48.92
2022-12-08T23:18:23.614Z,50.92
2022-12-08T23:23:25.529Z,45.83
2022-12-08T23:28:27.958Z,45.55
2022-12-08T23:33:30.322Z,43.75
2022-12-08T23:38:32.312Z,39.40
2022-12-08T23:43:34.893Z,41.25
2022-12-08T23:48:36.542Z,43.58
2022-12-08T23:53:38.444Z,39.92
2022-12-08T23:58:40.639Z,39.08
